Terminal Aerodrome Forecast
Issued by NWS

Home | Current Version | Previous Version | Text Only | Print | Product List | Glossary On
Versions: 1 2 3 4 5 6 7 8 9 10 11 12 13 14 15
659
FTUS46 KHNX 221851 AAA
TAFMER
TAF AMD
KMER 221851Z 2219/2318 04007KT P6SM BKN060
     FM222000 32012KT P6SM -SHRA SCT035 BKN050
      TEMPO 2220/2224 VRB12G22KT 4SM -TSRA BKN007 OVC035CB
     FM230400 32007KT P6SM SCT035=

USA.gov is the U.S. government's official web portal to all federal, state and local government web resources and services.